Time;durP1;ratioP1;P1;durP2;ratioP2;P2;SDS_P1;SDS_P2;PMS_P1;PMS_P2;Temp;Humidity;BMP_temperature;BMP_pressure;BME280_temperature;BME280_humidity;BME280_pressure;Samples;Min_cycle;Max_cycle;Signal;HPM_P1;HPM_P2
2023/08/01 00:00:02;;;;;;;9.32;7.60;;;;;;;;;;12910934;23;20383;-95
2023/08/01 00:05:05;;;;;;;8.65;7.25;;;;;;;;;;12912492;23;20377;-96
2023/08/01 00:10:08;;;;;;;10.20;7.17;;;;;;;;;;12912649;23;20370;-96
2023/08/01 00:15:12;;;;;;;8.20;7.07;;;;;;;;;;12912043;23;20445;-95
2023/08/01 00:20:14;;;;;;;9.60;7.00;;;;;;;;;;12887205;23;20354;-95
2023/08/01 00:25:18;;;;;;;7.53;6.65;;;;;;;;;;12912320;23;20449;-96
2023/08/01 00:30:21;;;;;;;6.90;5.90;;;;;;;;;;12913067;23;20426;-95
2023/08/01 00:35:24;;;;;;;7.37;5.97;;;;;;;;;;12933039;23;20401;-96
2023/08/01 00:40:31;;;;;;;10.02;6.20;;;;;;;;;;12910834;23;20396;-96
2023/08/01 00:45:34;;;;;;;8.18;5.35;;;;;;;;;;12912130;23;20342;-96
2023/08/01 00:50:37;;;;;;;6.37;5.00;;;;;;;;;;12944950;22;20390;-95
2023/08/01 00:55:40;;;;;;;6.20;4.60;;;;;;;;;;13034950;22;20351;-95
2023/08/01 01:00:44;;;;;;;6.50;4.60;;;;;;;;;;13042691;22;20358;-89
2023/08/01 01:05:53;;;;;;;4.90;4.30;;;;;;;;;;12929458;22;20369;-95
2023/08/01 01:10:56;;;;;;;6.20;4.23;;;;;;;;;;12970648;23;20345;-95
2023/08/01 01:16:00;;;;;;;5.20;4.00;;;;;;;;;;12971597;22;20390;-94
2023/08/01 01:21:05;;;;;;;5.25;4.10;;;;;;;;;;12971239;23;20406;-94
2023/08/01 01:26:08;;;;;;;6.18;4.20;;;;;;;;;;12992325;23;20360;-95
2023/08/01 01:31:11;;;;;;;5.28;4.20;;;;;;;;;;12971523;23;20824;-94
2023/08/01 01:36:15;;;;;;;4.53;3.95;;;;;;;;;;12970191;23;20356;-94
2023/08/01 01:41:18;;;;;;;6.13;4.28;;;;;;;;;;12991117;23;20372;-94
2023/08/01 01:46:20;;;;;;;5.70;4.32;;;;;;;;;;12943359;23;20386;-95
2023/08/01 01:51:26;;;;;;;4.97;3.93;;;;;;;;;;12990502;23;20386;-94
2023/08/01 01:56:29;;;;;;;4.47;4.07;;;;;;;;;;12967593;23;20344;-94
2023/08/01 02:01:32;;;;;;;5.35;4.45;;;;;;;;;;12968265;22;20909;-95
2023/08/01 02:06:36;;;;;;;5.28;4.53;;;;;;;;;;12967596;22;20919;-94
2023/08/01 02:11:39;;;;;;;6.40;4.80;;;;;;;;;;12991860;22;20360;-95
2023/08/01 02:16:41;;;;;;;6.03;5.27;;;;;;;;;;12968843;23;20360;-95
2023/08/01 04:02:24;;;;;;;5.53;4.82;;;;;;;;;;13024914;22;20412;-96
2023/08/01 04:07:28;;;;;;;5.75;4.75;;;;;;;;;;12988960;23;20406;-95
2023/08/01 04:12:30;;;;;;;7.80;4.60;;;;;;;;;;12966621;23;20368;-95
2023/08/01 04:17:33;;;;;;;5.05;4.53;;;;;;;;;;12967330;23;20357;-94
2023/08/01 04:22:36;;;;;;;6.13;4.53;;;;;;;;;;12987798;23;20380;-96
2023/08/01 04:27:38;;;;;;;5.18;4.00;;;;;;;;;;12965665;23;20406;-95
2023/08/01 04:32:41;;;;;;;5.57;3.92;;;;;;;;;;12970586;23;20398;-94
2023/08/01 04:37:44;;;;;;;5.70;4.03;;;;;;;;;;12991960;23;20352;-94
2023/08/01 04:42:47;;;;;;;6.38;4.20;;;;;;;;;;12971256;23;20475;-95
2023/08/01 04:47:49;;;;;;;4.90;4.40;;;;;;;;;;12970291;23;20394;-94
2023/08/01 04:52:53;;;;;;;5.18;4.53;;;;;;;;;;12992414;23;20356;-95
2023/08/01 04:57:55;;;;;;;6.10;4.47;;;;;;;;;;12969429;22;20399;-94
2023/08/01 05:02:57;;;;;;;6.68;4.10;;;;;;;;;;12979488;22;20382;-95
2023/08/01 05:08:01;;;;;;;5.03;3.88;;;;;;;;;;13033064;22;20432;-95
2023/08/01 05:18:21;;;;;;;5.38;4.40;;;;;;;;;;12976552;22;20625;-96
2023/08/01 05:23:25;;;;;;;6.53;4.00;;;;;;;;;;12974194;23;20372;-96
2023/08/01 05:28:27;;;;;;;6.88;4.72;;;;;;;;;;12974818;22;20462;-95
2023/08/01 05:33:30;;;;;;;10.37;6.50;;;;;;;;;;12989399;23;20394;-94
2023/08/01 05:51:09;;;;;;;14.23;9.27;;;;;;;;;;13010623;22;20339;-96
2023/08/01 05:56:13;;;;;;;14.57;9.48;;;;;;;;;;12956431;23;20468;-96
2023/08/01 06:01:15;;;;;;;13.65;8.73;;;;;;;;;;12942166;23;20348;-96
2023/08/01 06:06:18;;;;;;;14.35;8.55;;;;;;;;;;12958308;23;20414;-96
2023/08/01 06:11:22;;;;;;;9.48;6.50;;;;;;;;;;12960147;23;20357;-96
2023/08/01 06:16:25;;;;;;;8.15;5.47;;;;;;;;;;12962502;23;20844;-94
2023/08/01 06:21:27;;;;;;;5.90;5.30;;;;;;;;;;12968858;23;20390;-96
2023/08/01 06:26:31;;;;;;;5.72;4.75;;;;;;;;;;12974099;22;20405;-96
2023/08/01 06:31:33;;;;;;;7.20;5.30;;;;;;;;;;13027711;22;20389;-96
2023/08/01 06:36:36;;;;;;;10.27;6.15;;;;;;;;;;13044664;22;20374;-96
2023/08/01 06:41:39;;;;;;;9.47;6.50;;;;;;;;;;13015489;22;20374;-96
2023/08/01 06:46:42;;;;;;;6.93;5.90;;;;;;;;;;13008775;22;20378;-95
2023/08/01 06:51:44;;;;;;;8.00;6.30;;;;;;;;;;13010065;22;20366;-94
2023/08/01 06:56:48;;;;;;;9.60;6.53;;;;;;;;;;13010068;22;20432;-94
2023/08/01 07:01:50;;;;;;;8.30;6.18;;;;;;;;;;13009686;22;20397;-94
2023/08/01 07:06:52;;;;;;;6.30;5.70;;;;;;;;;;13014661;22;20379;-96
2023/08/01 07:11:56;;;;;;;6.90;4.65;;;;;;;;;;13013584;22;20359;-95
2023/08/01 07:16:58;;;;;;;3.85;3.53;;;;;;;;;;13013770;22;20350;-95
2023/08/01 07:22:00;;;;;;;5.78;3.28;;;;;;;;;;13015797;22;20363;-94
2023/08/01 07:27:05;;;;;;;3.70;2.67;;;;;;;;;;13014270;22;20374;-95
2023/08/01 07:32:08;;;;;;;3.10;2.47;;;;;;;;;;13013255;22;20359;-94
2023/08/01 07:37:10;;;;;;;3.20;2.70;;;;;;;;;;13037746;22;20366;-96
2023/08/01 07:42:14;;;;;;;3.80;2.30;;;;;;;;;;13015342;22;20359;-94
2023/08/01 07:47:16;;;;;;;3.63;2.58;;;;;;;;;;13015391;22;20359;-95
2023/08/01 07:52:18;;;;;;;3.50;2.40;;;;;;;;;;13014173;22;20385;-96
2023/08/01 07:57:22;;;;;;;3.42;2.58;;;;;;;;;;13015685;22;20363;-95
2023/08/01 08:02:24;;;;;;;2.63;2.03;;;;;;;;;;13014807;22;20841;-95
2023/08/01 08:07:27;;;;;;;2.60;2.08;;;;;;;;;;13033472;22;20948;-91
2023/08/01 08:12:30;;;;;;;5.72;3.00;;;;;;;;;;13005637;22;20367;-90
2023/08/01 08:17:33;;;;;;;3.40;2.70;;;;;;;;;;13006986;22;20393;-91
2023/08/01 08:22:35;;;;;;;3.03;2.80;;;;;;;;;;12992864;22;20378;-90
2023/08/01 08:27:38;;;;;;;3.43;3.03;;;;;;;;;;12983288;22;20370;-90
2023/08/01 08:32:41;;;;;;;4.25;3.20;;;;;;;;;;12984181;22;20408;-91
2023/08/01 08:37:43;;;;;;;3.87;3.47;;;;;;;;;;12986409;22;20367;-91
2023/08/01 08:42:49;;;;;;;4.50;4.00;;;;;;;;;;12986609;22;20444;-91
2023/08/01 08:47:56;;;;;;;4.40;3.35;;;;;;;;;;12986660;22;20397;-91
2023/08/01 08:52:59;;;;;;;3.53;2.92;;;;;;;;;;12986500;22;20378;-91
2023/08/01 08:58:04;;;;;;;3.70;3.30;;;;;;;;;;12986941;22;20389;-91
2023/08/01 09:03:06;;;;;;;4.10;3.57;;;;;;;;;;12987828;22;21058;-90
2023/08/01 09:08:16;;;;;;;4.40;3.33;;;;;;;;;;13007280;22;20374;-91
2023/08/01 09:13:20;;;;;;;5.32;3.20;;;;;;;;;;13008102;22;20428;-91
2023/08/01 09:18:22;;;;;;;4.40;3.30;;;;;;;;;;12985106;22;20392;-92
2023/08/01 09:23:25;;;;;;;3.38;2.80;;;;;;;;;;13007210;22;20428;-91
2023/08/01 09:28:29;;;;;;;2.70;2.35;;;;;;;;;;12984894;22;20371;-91
2023/08/01 09:33:39;;;;;;;3.35;2.58;;;;;;;;;;12985057;22;20393;-91
2023/08/01 09:38:42;;;;;;;3.72;2.80;;;;;;;;;;12984952;22;20370;-92
2023/08/01 09:43:47;;;;;;;2.83;2.40;;;;;;;;;;12984352;22;20451;-91
2023/08/01 09:48:49;;;;;;;2.50;2.28;;;;;;;;;;12984499;22;20366;-90
2023/08/01 09:53:53;;;;;;;2.57;2.10;;;;;;;;;;12984980;22;20362;-90
2023/08/01 09:58:57;;;;;;;2.17;1.95;;;;;;;;;;13006274;22;20363;-91
2023/08/01 10:04:00;;;;;;;1.77;1.67;;;;;;;;;;12984254;22;20467;-90
2023/08/01 10:09:03;;;;;;;1.80;1.70;;;;;;;;;;12981620;22;20366;-91
2023/08/01 10:14:08;;;;;;;2.10;1.90;;;;;;;;;;12984389;22;20370;-91
2023/08/01 10:19:11;;;;;;;2.15;1.70;;;;;;;;;;12985647;22;20370;-90
2023/08/01 10:24:16;;;;;;;2.40;2.00;;;;;;;;;;12984985;22;20382;-91
2023/08/01 10:29:20;;;;;;;2.30;2.10;;;;;;;;;;12983655;22;20401;-91
2023/08/01 10:34:22;;;;;;;2.75;2.20;;;;;;;;;;12983566;22;20424;-91
2023/08/01 10:39:26;;;;;;;3.25;2.70;;;;;;;;;;12983687;22;20359;-91
2023/08/01 10:44:31;;;;;;;2.30;2.07;;;;;;;;;;12984302;22;20444;-91
2023/08/01 10:49:35;;;;;;;3.17;2.55;;;;;;;;;;12984436;22;20363;-90
2023/08/01 10:54:39;;;;;;;2.63;2.43;;;;;;;;;;12985178;22;20440;-91
2023/08/01 10:59:44;;;;;;;2.55;2.10;;;;;;;;;;12980880;22;20416;-91
2023/08/01 11:04:56;;;;;;;3.25;2.28;;;;;;;;;;12982425;22;20444;-96
2023/08/01 11:10:06;;;;;;;5.07;4.05;;;;;;;;;;12978450;22;20754;-96
2023/08/01 11:15:11;;;;;;;2.53;2.33;;;;;;;;;;12979819;22;21290;-96
2023/08/01 11:20:14;;;;;;;2.63;2.42;;;;;;;;;;12981127;22;20431;-96
2023/08/01 11:25:16;;;;;;;3.15;2.10;;;;;;;;;;12979648;22;20554;-96
2023/08/01 11:30:20;;;;;;;3.37;1.90;;;;;;;;;;12978794;22;20400;-95
2023/08/01 11:35:23;;;;;;;2.63;2.30;;;;;;;;;;12981834;22;20379;-95
2023/08/01 11:40:26;;;;;;;2.47;2.27;;;;;;;;;;12979357;22;20378;-93
2023/08/01 11:45:31;;;;;;;4.22;2.40;;;;;;;;;;12977897;22;20446;-95
2023/08/01 11:50:33;;;;;;;2.30;2.10;;;;;;;;;;12975013;22;20434;-91
2023/08/01 11:55:38;;;;;;;2.88;2.40;;;;;;;;;;12971870;22;20976;-93
2023/08/01 12:00:42;;;;;;;2.50;2.30;;;;;;;;;;12975255;22;20428;-93
2023/08/01 12:05:45;;;;;;;2.58;2.30;;;;;;;;;;12972728;22;20610;-94
2023/08/01 12:10:47;;;;;;;2.83;2.47;;;;;;;;;;12975033;22;20367;-90
2023/08/01 12:15:52;;;;;;;2.60;2.40;;;;;;;;;;12976560;22;20874;-92
2023/08/01 12:20:54;;;;;;;3.08;2.42;;;;;;;;;;12978632;22;20437;-92
2023/08/01 12:25:57;;;;;;;2.40;2.20;;;;;;;;;;12976695;22;20382;-93
2023/08/01 12:31:00;;;;;;;3.58;2.65;;;;;;;;;;12977516;22;20397;-93
2023/08/01 12:36:03;;;;;;;2.40;2.20;;;;;;;;;;12979833;22;20428;-93
2023/08/01 12:41:06;;;;;;;3.42;2.47;;;;;;;;;;13000053;22;20363;-93
2023/08/01 12:46:09;;;;;;;2.95;2.75;;;;;;;;;;12978618;22;20867;-94
2023/08/01 12:51:11;;;;;;;2.57;2.37;;;;;;;;;;12978894;22;20359;-93
2023/08/01 12:56:14;;;;;;;2.90;2.40;;;;;;;;;;12980671;22;20394;-93
2023/08/01 13:01:17;;;;;;;5.63;2.37;;;;;;;;;;12979410;22;20366;-93
2023/08/01 13:06:20;;;;;;;2.45;2.25;;;;;;;;;;12982002;22;20383;-93
2023/08/01 13:11:22;;;;;;;3.25;2.20;;;;;;;;;;12983053;22;20366;-94
2023/08/01 13:16:25;;;;;;;2.70;2.50;;;;;;;;;;12981330;22;20405;-94
2023/08/01 13:21:28;;;;;;;2.97;2.40;;;;;;;;;;12976723;22;20371;-94
2023/08/01 13:26:30;;;;;;;3.00;2.60;;;;;;;;;;12976476;22;20383;-91
2023/08/01 13:31:34;;;;;;;4.30;2.70;;;;;;;;;;12979854;22;20441;-95
2023/08/01 13:36:36;;;;;;;3.00;2.40;;;;;;;;;;12980196;22;20359;-93
2023/08/01 13:41:38;;;;;;;3.30;2.53;;;;;;;;;;13002732;22;20363;-93
2023/08/01 13:46:42;;;;;;;3.75;2.72;;;;;;;;;;12982818;22;20425;-96
2023/08/01 13:51:44;;;;;;;3.00;2.60;;;;;;;;;;12993320;22;20367;-96
2023/08/01 13:56:47;;;;;;;2.88;2.58;;;;;;;;;;12990727;22;20393;-96
2023/08/01 14:01:53;;;;;;;3.00;2.70;;;;;;;;;;12987877;22;20354;-96
2023/08/01 14:06:56;;;;;;;2.70;2.50;;;;;;;;;;12987021;22;20386;-96
2023/08/01 14:11:58;;;;;;;3.00;2.80;;;;;;;;;;12986573;22;20370;-96
2023/08/01 14:17:02;;;;;;;3.20;2.65;;;;;;;;;;12989291;22;20827;-96
2023/08/01 14:22:05;;;;;;;3.95;3.13;;;;;;;;;;12987747;22;20409;-96
2023/08/01 14:27:07;;;;;;;3.00;2.70;;;;;;;;;;12978208;22;20677;-96
2023/08/01 14:32:11;;;;;;;3.92;2.88;;;;;;;;;;12984758;22;20445;-96
2023/08/01 14:37:13;;;;;;;3.10;2.80;;;;;;;;;;12984454;22;20366;-96
2023/08/01 14:42:16;;;;;;;5.23;3.67;;;;;;;;;;12973091;22;20918;-96
2023/08/01 14:47:19;;;;;;;4.53;3.03;;;;;;;;;;12984806;22;20382;-96
2023/08/01 14:52:22;;;;;;;3.45;3.15;;;;;;;;;;13008059;22;20358;-96
2023/08/01 14:57:24;;;;;;;4.55;3.35;;;;;;;;;;12987915;22;20417;-96
2023/08/01 15:02:28;;;;;;;3.55;3.20;;;;;;;;;;13009265;22;20358;-96
2023/08/01 15:07:30;;;;;;;3.93;3.17;;;;;;;;;;12989112;22;20428;-95
2023/08/01 15:12:33;;;;;;;4.30;3.30;;;;;;;;;;12993305;22;20823;-96
2023/08/01 15:17:36;;;;;;;3.20;2.75;;;;;;;;;;12969914;22;20390;-89
2023/08/01 15:22:39;;;;;;;3.20;2.93;;;;;;;;;;12970801;22;20417;-89
2023/08/01 15:39:07;;;;;;;3.00;2.80;;;;;;;;;;12974246;22;20436;-89
2023/08/01 15:44:09;;;;;;;3.47;3.00;;;;;;;;;;12975574;22;20382;-91
2023/08/01 15:49:11;;;;;;;3.42;2.92;;;;;;;;;;12976904;22;20448;-86
2023/08/01 15:54:15;;;;;;;3.15;2.72;;;;;;;;;;12978268;22;20413;-87
2023/08/01 15:59:17;;;;;;;3.55;3.08;;;;;;;;;;12974240;22;20424;-88
2023/08/01 16:04:20;;;;;;;3.08;2.80;;;;;;;;;;12974259;22;20413;-87
2023/08/01 16:09:23;;;;;;;3.92;3.40;;;;;;;;;;12972367;22;21167;-88
2023/08/01 16:14:26;;;;;;;4.85;3.38;;;;;;;;;;12968030;22;20390;-86
2023/08/01 16:19:28;;;;;;;5.55;3.13;;;;;;;;;;12969348;22;20378;-87
2023/08/01 16:24:32;;;;;;;5.40;3.10;;;;;;;;;;12971346;22;20460;-87
2023/08/01 16:29:34;;;;;;;5.33;3.40;;;;;;;;;;12967108;22;20386;-86
2023/08/01 16:34:36;;;;;;;4.07;3.20;;;;;;;;;;12964337;22;20793;-88
2023/08/01 16:39:42;;;;;;;4.83;3.50;;;;;;;;;;12967073;22;20459;-90
2023/08/01 16:44:44;;;;;;;4.00;3.08;;;;;;;;;;12969822;22;20448;-93
2023/08/01 16:49:47;;;;;;;3.70;3.30;;;;;;;;;;12975547;22;20382;-93
2023/08/01 16:54:51;;;;;;;3.58;3.15;;;;;;;;;;12975187;22;20405;-93
2023/08/01 16:59:53;;;;;;;3.40;3.10;;;;;;;;;;12975081;22;20409;-93
2023/08/01 17:04:55;;;;;;;5.07;2.95;;;;;;;;;;12979403;22;21177;-92
2023/08/01 17:10:01;;;;;;;3.35;3.05;;;;;;;;;;12978169;22;20436;-93
2023/08/01 17:15:04;;;;;;;5.40;3.40;;;;;;;;;;12978169;22;20704;-92
2023/08/01 17:20:08;;;;;;;3.50;3.20;;;;;;;;;;12985239;22;20399;-92
2023/08/01 17:25:12;;;;;;;4.35;3.60;;;;;;;;;;12976211;22;20382;-89
2023/08/01 17:30:14;;;;;;;3.97;3.40;;;;;;;;;;12973865;22;20413;-90
2023/08/01 17:35:17;;;;;;;5.30;3.67;;;;;;;;;;12975684;22;20379;-90
2023/08/01 17:40:20;;;;;;;4.63;4.10;;;;;;;;;;12974173;22;20500;-80
2023/08/01 17:45:24;;;;;;;6.00;4.60;;;;;;;;;;12967705;22;20379;-88
2023/08/01 17:50:26;;;;;;;11.87;8.30;;;;;;;;;;12969061;22;20959;-78
2023/08/01 17:55:29;;;;;;;9.90;5.80;;;;;;;;;;12965048;22;20440;-84
2023/08/01 18:00:32;;;;;;;4.28;3.83;;;;;;;;;;12975189;22;21132;-89
2023/08/01 18:05:34;;;;;;;5.20;4.25;;;;;;;;;;12973352;22;20413;-91
2023/08/01 18:10:38;;;;;;;5.70;4.03;;;;;;;;;;12977300;22;20413;-89
2023/08/01 18:15:42;;;;;;;5.50;4.10;;;;;;;;;;12980696;22;20362;-90
2023/08/01 18:20:44;;;;;;;5.18;4.43;;;;;;;;;;12978520;22;20393;-91
2023/08/01 18:25:48;;;;;;;5.18;4.55;;;;;;;;;;12982267;22;20378;-91
2023/08/01 18:30:50;;;;;;;6.80;5.47;;;;;;;;;;12984771;22;20397;-91
2023/08/01 18:35:53;;;;;;;7.95;6.47;;;;;;;;;;12984769;22;20379;-89
2023/08/01 18:40:56;;;;;;;5.80;5.00;;;;;;;;;;12984637;22;20355;-90
2023/08/01 18:45:59;;;;;;;5.63;5.10;;;;;;;;;;12985193;22;20412;-91
2023/08/01 18:51:02;;;;;;;5.60;5.00;;;;;;;;;;12984652;22;20385;-92
2023/08/01 18:56:10;;;;;;;5.37;4.87;;;;;;;;;;12987969;22;20420;-90
2023/08/01 19:01:14;;;;;;;5.03;4.53;;;;;;;;;;12991795;22;20379;-90
2023/08/01 19:06:17;;;;;;;5.55;4.35;;;;;;;;;;12992710;22;20393;-91
2023/08/01 19:11:20;;;;;;;4.18;3.78;;;;;;;;;;12988509;22;20362;-91
2023/08/01 19:16:23;;;;;;;5.00;3.80;;;;;;;;;;12987001;22;20362;-91
2023/08/01 19:21:25;;;;;;;4.10;3.60;;;;;;;;;;12988718;22;20354;-91
2023/08/01 19:26:29;;;;;;;3.28;2.88;;;;;;;;;;12987898;22;20460;-90
2023/08/01 19:31:31;;;;;;;3.30;2.72;;;;;;;;;;12983979;22;20378;-80
2023/08/01 19:36:33;;;;;;;3.53;3.10;;;;;;;;;;12984546;22;20370;-89
2023/08/01 19:41:37;;;;;;;3.00;2.70;;;;;;;;;;12986146;22;20409;-89
2023/08/01 19:46:39;;;;;;;3.78;2.65;;;;;;;;;;12987120;22;20378;-89
2023/08/01 19:51:42;;;;;;;2.33;1.90;;;;;;;;;;12984646;22;20375;-90
2023/08/01 19:56:46;;;;;;;1.63;1.50;;;;;;;;;;12984617;22;20371;-88
2023/08/01 20:01:49;;;;;;;1.60;1.50;;;;;;;;;;12986851;22;20363;-89
2023/08/01 20:06:51;;;;;;;1.70;1.40;;;;;;;;;;12987187;22;20412;-89
2023/08/01 20:11:55;;;;;;;1.42;1.27;;;;;;;;;;12986218;22;20366;-89
2023/08/01 20:16:57;;;;;;;1.60;1.50;;;;;;;;;;12987019;22;20370;-89
2023/08/01 20:22:00;;;;;;;1.70;1.60;;;;;;;;;;12986710;22;20896;-89
2023/08/01 20:27:04;;;;;;;2.10;1.90;;;;;;;;;;12986476;22;20382;-89
2023/08/01 20:32:08;;;;;;;2.35;1.65;;;;;;;;;;12986344;22;20354;-88
2023/08/01 20:37:10;;;;;;;2.13;1.73;;;;;;;;;;12987344;22;20371;-89
2023/08/01 20:42:14;;;;;;;3.65;1.95;;;;;;;;;;12986516;22;20408;-88
2023/08/01 20:47:16;;;;;;;3.30;1.90;;;;;;;;;;12986582;22;20378;-88
2023/08/01 20:52:18;;;;;;;2.42;2.00;;;;;;;;;;12985866;22;20425;-87
2023/08/01 20:57:22;;;;;;;3.53;2.00;;;;;;;;;;12985896;22;20355;-90
2023/08/01 21:02:24;;;;;;;2.35;2.03;;;;;;;;;;12984996;22;20420;-89
2023/08/01 21:07:27;;;;;;;3.65;1.98;;;;;;;;;;12985803;22;20441;-88
2023/08/01 21:12:31;;;;;;;2.25;1.70;;;;;;;;;;12986406;22;20416;-88
2023/08/01 21:17:33;;;;;;;2.05;1.67;;;;;;;;;;12984869;22;20974;-89
2023/08/01 21:22:35;;;;;;;2.08;1.60;;;;;;;;;;12984135;22;20846;-90
2023/08/01 21:27:39;;;;;;;3.77;1.63;;;;;;;;;;12985699;22;20379;-89
2023/08/01 21:32:42;;;;;;;1.35;1.25;;;;;;;;;;12984978;22;20371;-88
2023/08/01 21:37:45;;;;;;;1.52;1.20;;;;;;;;;;12985638;22;20451;-88
2023/08/01 21:42:49;;;;;;;3.20;1.27;;;;;;;;;;12984876;22;20420;-88
2023/08/01 21:47:51;;;;;;;1.40;1.30;;;;;;;;;;12986788;22;20855;-89
2023/08/01 21:52:54;;;;;;;2.47;1.20;;;;;;;;;;13006136;22;20428;-88
2023/08/01 21:57:57;;;;;;;1.45;1.05;;;;;;;;;;12983910;22;20366;-90
2023/08/01 22:03:00;;;;;;;1.48;1.30;;;;;;;;;;12984753;22;20367;-89
2023/08/01 22:08:02;;;;;;;1.23;1.10;;;;;;;;;;12984956;22;20382;-89
2023/08/01 22:13:06;;;;;;;1.40;1.15;;;;;;;;;;12983273;22;20367;-89
2023/08/01 22:18:11;;;;;;;1.97;1.00;;;;;;;;;;12980996;22;21227;-88
2023/08/01 22:23:18;;;;;;;2.10;1.10;;;;;;;;;;12982874;22;20363;-91
2023/08/01 22:28:23;;;;;;;2.72;1.02;;;;;;;;;;12983989;22;20382;-91
2023/08/01 22:33:25;;;;;;;0.80;0.73;;;;;;;;;;12981990;22;20366;-87
2023/08/01 22:38:27;;;;;;;1.20;0.90;;;;;;;;;;12974685;22;20371;-86
2023/08/01 22:43:31;;;;;;;1.27;0.98;;;;;;;;;;12977048;22;20422;-87
2023/08/01 22:48:33;;;;;;;1.17;0.75;;;;;;;;;;12975764;22;20915;-85
2023/08/01 22:53:36;;;;;;;1.50;0.65;;;;;;;;;;12975616;22;20499;-87
2023/08/01 22:58:39;;;;;;;1.40;0.77;;;;;;;;;;12975833;22;20401;-87
2023/08/01 23:03:43;;;;;;;0.70;0.68;;;;;;;;;;12975390;22;20428;-87
2023/08/01 23:08:45;;;;;;;0.95;0.75;;;;;;;;;;12977032;22;20379;-87
2023/08/01 23:13:49;;;;;;;0.70;0.63;;;;;;;;;;12976537;22;20834;-87
2023/08/01 23:18:51;;;;;;;0.80;0.60;;;;;;;;;;12977644;22;20811;-87
2023/08/01 23:23:53;;;;;;;1.85;0.60;;;;;;;;;;12979410;22;20823;-87
2023/08/01 23:28:57;;;;;;;1.90;0.60;;;;;;;;;;12975219;22;20920;-87
2023/08/01 23:34:01;;;;;;;1.30;0.60;;;;;;;;;;12977704;22;20367;-87
2023/08/01 23:39:03;;;;;;;1.77;0.70;;;;;;;;;;12999382;22;20367;-87
2023/08/01 23:44:07;;;;;;;0.67;0.50;;;;;;;;;;12978595;22;20811;-87
2023/08/01 23:49:09;;;;;;;1.20;0.50;;;;;;;;;;12981898;22;20460;-87
2023/08/01 23:54:12;;;;;;;1.10;0.68;;;;;;;;;;12981022;22;20417;-87
2023/08/01 23:59:15;;;;;;;2.05;0.73;;;;;;;;;;12980933;22;20900;-86
